createdAt,value
2024-04-03T00:08:11.447Z,1012.22
2024-04-03T00:36:30.102Z,1011.99
2024-04-03T01:04:39.612Z,1011.78
2024-04-03T01:33:01.495Z,1011.32
2024-04-03T02:01:23.036Z,1011.1
2024-04-03T02:29:38.070Z,1010.67
2024-04-03T02:58:01.650Z,1010.44
2024-04-03T03:26:16.010Z,1010.3
2024-04-03T03:54:39.412Z,1010.45
2024-04-03T04:23:03.466Z,1010.6
2024-04-03T04:51:21.934Z,1010.49
2024-04-03T05:19:51.570Z,1010.68
2024-04-03T05:48:04.156Z,1011.19
2024-04-03T06:16:26.680Z,1011.12
2024-04-03T06:44:52.598Z,1010.51
2024-04-03T07:14:05.948Z,1010.2
2024-04-03T07:43:03.102Z,1010.21
2024-04-03T08:12:05.005Z,1010.27
2024-04-03T08:41:15.839Z,1010.35
2024-04-03T09:10:19.996Z,1010.69
2024-04-03T09:39:09.010Z,1010.98
2024-04-03T10:07:55.169Z,1010.93
2024-04-03T10:36:57.402Z,1010.61
2024-04-03T11:06:03.078Z,1010.62
2024-04-03T11:35:06.932Z,1010.6
2024-04-03T12:03:31.425Z,1010.66
2024-04-03T12:31:45.299Z,1010.72
2024-04-03T13:00:06.989Z,1010.77
2024-04-03T13:28:24.134Z,1011.04
2024-04-03T13:56:45.034Z,1011.28
2024-04-03T14:25:06.600Z,1011.58
2024-04-03T14:53:23.072Z,1011.57
2024-04-03T15:21:44.211Z,1011.55
2024-04-03T15:50:06.396Z,1011.59
2024-04-03T16:18:28.606Z,1011.69
2024-04-03T16:46:53.279Z,1011.86
2024-04-03T17:15:14.332Z,1012.02
2024-04-03T17:43:34.904Z,1012.29
2024-04-03T18:12:02.560Z,1012.59
2024-04-03T18:40:21.211Z,1012.89
2024-04-03T19:08:45.437Z,1013.11
2024-04-03T19:37:03.826Z,1013.41
2024-04-03T20:05:22.330Z,1013.72
2024-04-03T20:33:41.354Z,1013.75
2024-04-03T21:02:04.731Z,1013.93
2024-04-03T21:30:28.567Z,1014.14
2024-04-03T21:58:54.119Z,1014.54
2024-04-03T22:27:19.441Z,1014.8
2024-04-03T22:55:41.238Z,1014.85
2024-04-03T23:24:03.702Z,1015.12
2024-04-03T23:52:28.203Z,1014.99
